Camden, Michigan
Current Conditions -  °F | °C
As of 6:15 AM on Wednesday 22 Oct 2014 (Local Time) from KJYM Reporting Station
Overcast Overcast  
Wind Chill: 41°   Ceiling: 1700
Heat Index: 41°   Visibility: 10mi
Dew Point: 38°   Wind: 3mph
Humidity: 91%   Direction: 340°NNW
Pressure: 30.27"   Gusts: NA
Location:  41.75°N, 84.76°W
Report Text: KJYM 221015Z AUTO 34003KT 10SM OVC017 05/03 A3027 RMK AO2 T00480034
Loading
Personal Weather Stations






























Interactive Weather Map New forecast layout! Learn more

10-Day Weather Forecast

Advertisements
Track Severe Weather on mobile